sensor_id;sensor_type;location;lat;lon;timestamp;P1;durP1;ratioP1;P2;durP2;ratioP2
10191;SDS011;17580;50.850;4.504;2024-02-26T00:01:50;1.60;;;1.50;;
10191;SDS011;17580;50.850;4.504;2024-02-26T00:04:18;4.13;;;1.63;;
10191;SDS011;17580;50.850;4.504;2024-02-26T00:06:48;1.70;;;1.60;;
10191;SDS011;17580;50.850;4.504;2024-02-26T00:09:16;2.17;;;1.60;;
10191;SDS011;17580;50.850;4.504;2024-02-26T00:11:43;1.83;;;1.53;;
10191;SDS011;17580;50.850;4.504;2024-02-26T00:14:11;1.93;;;1.23;;
10191;SDS011;17580;50.850;4.504;2024-02-26T00:16:39;1.60;;;1.50;;
10191;SDS011;17580;50.850;4.504;2024-02-26T00:19:07;1.53;;;1.43;;
10191;SDS011;17580;50.850;4.504;2024-02-26T00:21:34;2.10;;;1.40;;
10191;SDS011;17580;50.850;4.504;2024-02-26T00:24:03;2.30;;;1.73;;
10191;SDS011;17580;50.850;4.504;2024-02-26T00:26:30;1.67;;;1.40;;
10191;SDS011;17580;50.850;4.504;2024-02-26T00:28:57;1.43;;;1.43;;
10191;SDS011;17580;50.850;4.504;2024-02-26T00:31:25;1.83;;;1.73;;
10191;SDS011;17580;50.850;4.504;2024-02-26T00:33:52;1.60;;;1.50;;
10191;SDS011;17580;50.850;4.504;2024-02-26T00:36:19;4.20;;;1.40;;
10191;SDS011;17580;50.850;4.504;2024-02-26T00:38:46;1.73;;;1.63;;
10191;SDS011;17580;50.850;4.504;2024-02-26T00:41:17;3.13;;;1.43;;
10191;SDS011;17580;50.850;4.504;2024-02-26T00:43:44;1.57;;;1.47;;
10191;SDS011;17580;50.850;4.504;2024-02-26T00:46:11;4.03;;;1.87;;
10191;SDS011;17580;50.850;4.504;2024-02-26T00:48:39;2.90;;;1.47;;
10191;SDS011;17580;50.850;4.504;2024-02-26T00:51:06;6.43;;;1.67;;
10191;SDS011;17580;50.850;4.504;2024-02-26T00:53:33;2.93;;;1.60;;
10191;SDS011;17580;50.850;4.504;2024-02-26T00:56:01;2.17;;;1.40;;
10191;SDS011;17580;50.850;4.504;2024-02-26T00:58:29;1.97;;;1.60;;
10191;SDS011;17580;50.850;4.504;2024-02-26T01:00:56;2.87;;;1.60;;
10191;SDS011;17580;50.850;4.504;2024-02-26T01:03:24;1.60;;;1.50;;
10191;SDS011;17580;50.850;4.504;2024-02-26T01:05:51;2.03;;;1.93;;
10191;SDS011;17580;50.850;4.504;2024-02-26T01:08:18;1.57;;;1.47;;
10191;SDS011;17580;50.850;4.504;2024-02-26T01:10:46;1.93;;;1.50;;
10191;SDS011;17580;50.850;4.504;2024-02-26T01:13:13;2.30;;;1.40;;
10191;SDS011;17580;50.850;4.504;2024-02-26T01:15:42;2.63;;;1.50;;
10191;SDS011;17580;50.850;4.504;2024-02-26T01:18:09;3.63;;;1.90;;
10191;SDS011;17580;50.850;4.504;2024-02-26T01:20:36;1.60;;;1.50;;
10191;SDS011;17580;50.850;4.504;2024-02-26T01:23:04;1.50;;;1.40;;
10191;SDS011;17580;50.850;4.504;2024-02-26T01:25:31;1.97;;;1.20;;
10191;SDS011;17580;50.850;4.504;2024-02-26T01:27:58;1.80;;;1.60;;
10191;SDS011;17580;50.850;4.504;2024-02-26T01:30:25;1.87;;;1.60;;
10191;SDS011;17580;50.850;4.504;2024-02-26T01:32:54;1.40;;;1.40;;
10191;SDS011;17580;50.850;4.504;2024-02-26T01:35:21;1.50;;;1.40;;
10191;SDS011;17580;50.850;4.504;2024-02-26T01:37:49;1.30;;;1.30;;
10191;SDS011;17580;50.850;4.504;2024-02-26T01:40:16;1.50;;;1.40;;
10191;SDS011;17580;50.850;4.504;2024-02-26T01:42:45;1.80;;;1.70;;
10191;SDS011;17580;50.850;4.504;2024-02-26T01:45:14;1.30;;;1.30;;
10191;SDS011;17580;50.850;4.504;2024-02-26T01:47:46;1.17;;;1.17;;
10191;SDS011;17580;50.850;4.504;2024-02-26T01:50:15;1.17;;;1.17;;
10191;SDS011;17580;50.850;4.504;2024-02-26T01:52:42;1.50;;;1.40;;
10191;SDS011;17580;50.850;4.504;2024-02-26T01:55:09;1.23;;;1.13;;
10191;SDS011;17580;50.850;4.504;2024-02-26T01:57:37;1.80;;;1.70;;
10191;SDS011;17580;50.850;4.504;2024-02-26T02:00:04;1.43;;;1.33;;
10191;SDS011;17580;50.850;4.504;2024-02-26T02:02:33;1.33;;;1.23;;
10191;SDS011;17580;50.850;4.504;2024-02-26T02:05:01;1.50;;;1.40;;
10191;SDS011;17580;50.850;4.504;2024-02-26T02:07:30;1.40;;;1.33;;
10191;SDS011;17580;50.850;4.504;2024-02-26T02:09:57;1.33;;;1.20;;
10191;SDS011;17580;50.850;4.504;2024-02-26T02:12:25;1.10;;;1.10;;
10191;SDS011;17580;50.850;4.504;2024-02-26T02:14:52;1.20;;;1.10;;
10191;SDS011;17580;50.850;4.504;2024-02-26T02:17:20;1.20;;;1.10;;
10191;SDS011;17580;50.850;4.504;2024-02-26T02:19:47;1.07;;;1.07;;
10191;SDS011;17580;50.850;4.504;2024-02-26T02:22:16;2.77;;;1.30;;
10191;SDS011;17580;50.850;4.504;2024-02-26T02:24:43;1.40;;;1.40;;
10191;SDS011;17580;50.850;4.504;2024-02-26T02:27:11;0.93;;;0.93;;
10191;SDS011;17580;50.850;4.504;2024-02-26T02:29:38;1.30;;;1.17;;
10191;SDS011;17580;50.850;4.504;2024-02-26T02:32:06;1.20;;;1.10;;
10191;SDS011;17580;50.850;4.504;2024-02-26T02:34:33;1.10;;;1.00;;
10191;SDS011;17580;50.850;4.504;2024-02-26T02:37:01;1.23;;;1.13;;
10191;SDS011;17580;50.850;4.504;2024-02-26T02:39:29;1.23;;;1.20;;
10191;SDS011;17580;50.850;4.504;2024-02-26T02:41:56;2.93;;;1.37;;
10191;SDS011;17580;50.850;4.504;2024-02-26T02:44:24;1.50;;;1.33;;
10191;SDS011;17580;50.850;4.504;2024-02-26T02:46:51;1.10;;;1.10;;
10191;SDS011;17580;50.850;4.504;2024-02-26T02:49:18;1.20;;;1.10;;
10191;SDS011;17580;50.850;4.504;2024-02-26T02:51:47;1.40;;;1.30;;
10191;SDS011;17580;50.850;4.504;2024-02-26T02:54:14;2.70;;;1.33;;
10191;SDS011;17580;50.850;4.504;2024-02-26T02:56:43;1.43;;;1.33;;
10191;SDS011;17580;50.850;4.504;2024-02-26T02:59:10;1.20;;;1.20;;
10191;SDS011;17580;50.850;4.504;2024-02-26T03:01:37;1.50;;;1.40;;
10191;SDS011;17580;50.850;4.504;2024-02-26T03:04:05;1.30;;;1.30;;
10191;SDS011;17580;50.850;4.504;2024-02-26T03:06:32;1.10;;;1.10;;
10191;SDS011;17580;50.850;4.504;2024-02-26T03:08:59;1.90;;;1.80;;
10191;SDS011;17580;50.850;4.504;2024-02-26T03:11:27;1.33;;;1.20;;
10191;SDS011;17580;50.850;4.504;2024-02-26T03:13:56;1.30;;;1.20;;
10191;SDS011;17580;50.850;4.504;2024-02-26T03:16:23;1.00;;;1.00;;
10191;SDS011;17580;50.850;4.504;2024-02-26T03:18:50;1.37;;;1.37;;
10191;SDS011;17580;50.850;4.504;2024-02-26T03:21:17;1.20;;;1.20;;
10191;SDS011;17580;50.850;4.504;2024-02-26T03:23:45;2.03;;;1.20;;
10191;SDS011;17580;50.850;4.504;2024-02-26T03:26:12;1.20;;;1.20;;
10191;SDS011;17580;50.850;4.504;2024-02-26T03:28:40;1.47;;;1.30;;
10191;SDS011;17580;50.850;4.504;2024-02-26T03:31:08;1.60;;;1.50;;
10191;SDS011;17580;50.850;4.504;2024-02-26T03:33:37;1.30;;;1.20;;
10191;SDS011;17580;50.850;4.504;2024-02-26T03:36:04;1.30;;;1.20;;
10191;SDS011;17580;50.850;4.504;2024-02-26T03:38:32;1.40;;;1.40;;
10191;SDS011;17580;50.850;4.504;2024-02-26T03:41:00;1.50;;;1.43;;
10191;SDS011;17580;50.850;4.504;2024-02-26T03:43:27;1.13;;;1.13;;
10191;SDS011;17580;50.850;4.504;2024-02-26T03:45:54;2.40;;;1.40;;
10191;SDS011;17580;50.850;4.504;2024-02-26T03:48:23;1.60;;;1.50;;
10191;SDS011;17580;50.850;4.504;2024-02-26T03:50:50;3.17;;;1.50;;
10191;SDS011;17580;50.850;4.504;2024-02-26T03:53:17;1.70;;;1.60;;
10191;SDS011;17580;50.850;4.504;2024-02-26T03:55:44;2.07;;;1.60;;
10191;SDS011;17580;50.850;4.504;2024-02-26T03:58:12;1.57;;;1.53;;
10191;SDS011;17580;50.850;4.504;2024-02-26T04:00:39;1.30;;;1.30;;
10191;SDS011;17580;50.850;4.504;2024-02-26T04:03:07;2.00;;;1.50;;
10191;SDS011;17580;50.850;4.504;2024-02-26T04:05:35;1.90;;;1.60;;
10191;SDS011;17580;50.850;4.504;2024-02-26T04:08:03;2.83;;;1.40;;
10191;SDS011;17580;50.850;4.504;2024-02-26T04:10:32;2.50;;;1.73;;
10191;SDS011;17580;50.850;4.504;2024-02-26T04:13:03;1.93;;;1.70;;
10191;SDS011;17580;50.850;4.504;2024-02-26T04:15:30;1.50;;;1.50;;
10191;SDS011;17580;50.850;4.504;2024-02-26T04:17:57;1.70;;;1.70;;
10191;SDS011;17580;50.850;4.504;2024-02-26T04:20:25;2.80;;;1.93;;
10191;SDS011;17580;50.850;4.504;2024-02-26T04:22:53;1.80;;;1.70;;
10191;SDS011;17580;50.850;4.504;2024-02-26T04:25:20;2.10;;;1.87;;
10191;SDS011;17580;50.850;4.504;2024-02-26T04:27:48;2.93;;;2.17;;
10191;SDS011;17580;50.850;4.504;2024-02-26T04:30:15;2.90;;;2.33;;
10191;SDS011;17580;50.850;4.504;2024-02-26T04:32:43;2.20;;;2.10;;
10191;SDS011;17580;50.850;4.504;2024-02-26T04:35:10;2.13;;;2.03;;
10191;SDS011;17580;50.850;4.504;2024-02-26T04:37:37;2.67;;;2.27;;
10191;SDS011;17580;50.850;4.504;2024-02-26T04:40:07;2.20;;;2.10;;
10191;SDS011;17580;50.850;4.504;2024-02-26T04:42:34;2.63;;;2.43;;
10191;SDS011;17580;50.850;4.504;2024-02-26T04:45:02;2.80;;;2.60;;
10191;SDS011;17580;50.850;4.504;2024-02-26T04:47:29;2.83;;;2.63;;
10191;SDS011;17580;50.850;4.504;2024-02-26T04:49:56;2.87;;;2.67;;
10191;SDS011;17580;50.850;4.504;2024-02-26T04:52:23;3.20;;;3.00;;
10191;SDS011;17580;50.850;4.504;2024-02-26T04:54:51;2.53;;;2.43;;
10191;SDS011;17580;50.850;4.504;2024-02-26T04:57:19;3.70;;;2.90;;
10191;SDS011;17580;50.850;4.504;2024-02-26T04:59:46;2.83;;;2.63;;
10191;SDS011;17580;50.850;4.504;2024-02-26T05:02:14;3.07;;;2.87;;
10191;SDS011;17580;50.850;4.504;2024-02-26T05:04:41;2.90;;;2.70;;
10191;SDS011;17580;50.850;4.504;2024-02-26T05:07:08;3.50;;;3.20;;
10191;SDS011;17580;50.850;4.504;2024-02-26T05:09:35;3.30;;;3.10;;
10191;SDS011;17580;50.850;4.504;2024-02-26T05:12:03;3.40;;;3.20;;
10191;SDS011;17580;50.850;4.504;2024-02-26T05:14:31;3.53;;;3.33;;
10191;SDS011;17580;50.850;4.504;2024-02-26T05:16:59;3.20;;;3.00;;
10191;SDS011;17580;50.850;4.504;2024-02-26T05:19:26;3.63;;;3.40;;
10191;SDS011;17580;50.850;4.504;2024-02-26T05:21:53;3.73;;;3.50;;
10191;SDS011;17580;50.850;4.504;2024-02-26T05:24:22;3.90;;;3.60;;
10191;SDS011;17580;50.850;4.504;2024-02-26T05:26:49;4.37;;;3.70;;
10191;SDS011;17580;50.850;4.504;2024-02-26T05:29:16;4.40;;;4.00;;
10191;SDS011;17580;50.850;4.504;2024-02-26T05:31:45;5.23;;;4.77;;
10191;SDS011;17580;50.850;4.504;2024-02-26T05:34:12;4.80;;;4.40;;
10191;SDS011;17580;50.850;4.504;2024-02-26T05:36:39;6.00;;;4.93;;
10191;SDS011;17580;50.850;4.504;2024-02-26T05:39:06;5.37;;;4.87;;
10191;SDS011;17580;50.850;4.504;2024-02-26T05:41:36;5.80;;;5.30;;
10191;SDS011;17580;50.850;4.504;2024-02-26T05:44:03;5.60;;;5.10;;
10191;SDS011;17580;50.850;4.504;2024-02-26T05:46:30;6.60;;;6.00;;
10191;SDS011;17580;50.850;4.504;2024-02-26T05:48:59;8.53;;;6.17;;
10191;SDS011;17580;50.850;4.504;2024-02-26T05:51:26;7.57;;;6.87;;
10191;SDS011;17580;50.850;4.504;2024-02-26T05:53:53;6.80;;;6.10;;
10191;SDS011;17580;50.850;4.504;2024-02-26T05:56:21;9.37;;;7.50;;
10191;SDS011;17580;50.850;4.504;2024-02-26T05:58:48;7.50;;;6.63;;
10191;SDS011;17580;50.850;4.504;2024-02-26T06:01:15;8.63;;;7.63;;
10191;SDS011;17580;50.850;4.504;2024-02-26T06:03:43;7.90;;;7.20;;
10191;SDS011;17580;50.850;4.504;2024-02-26T06:06:12;7.97;;;7.23;;
10191;SDS011;17580;50.850;4.504;2024-02-26T06:08:40;8.80;;;8.00;;
10191;SDS011;17580;50.850;4.504;2024-02-26T06:11:07;7.70;;;7.00;;
10191;SDS011;17580;50.850;4.504;2024-02-26T06:13:34;7.73;;;6.93;;
10191;SDS011;17580;50.850;4.504;2024-02-26T06:16:02;7.47;;;6.77;;
10191;SDS011;17580;50.850;4.504;2024-02-26T06:18:30;7.40;;;6.70;;
10191;SDS011;17580;50.850;4.504;2024-02-26T06:20:57;7.17;;;6.53;;
10191;SDS011;17580;50.850;4.504;2024-02-26T06:23:26;8.33;;;7.53;;
10191;SDS011;17580;50.850;4.504;2024-02-26T06:25:53;7.40;;;6.80;;
10191;SDS011;17580;50.850;4.504;2024-02-26T06:28:20;7.37;;;6.63;;
10191;SDS011;17580;50.850;4.504;2024-02-26T06:30:47;7.50;;;6.90;;
10191;SDS011;17580;50.850;4.504;2024-02-26T06:33:15;7.30;;;6.70;;
10191;SDS011;17580;50.850;4.504;2024-02-26T06:35:42;7.70;;;7.00;;
10191;SDS011;17580;50.850;4.504;2024-02-26T06:38:10;7.73;;;7.13;;
10191;SDS011;17580;50.850;4.504;2024-02-26T06:40:40;6.57;;;5.97;;
10191;SDS011;17580;50.850;4.504;2024-02-26T06:43:07;8.57;;;6.60;;
10191;SDS011;17580;50.850;4.504;2024-02-26T06:45:34;7.03;;;6.47;;
10191;SDS011;17580;50.850;4.504;2024-02-26T06:48:02;6.60;;;6.00;;
10191;SDS011;17580;50.850;4.504;2024-02-26T06:50:29;6.97;;;6.40;;
10191;SDS011;17580;50.850;4.504;2024-02-26T06:52:56;8.40;;;7.40;;
10191;SDS011;17580;50.850;4.504;2024-02-26T06:55:23;7.87;;;7.27;;
10191;SDS011;17580;50.850;4.504;2024-02-26T06:57:52;7.30;;;6.77;;
10191;SDS011;17580;50.850;4.504;2024-02-26T07:00:19;8.03;;;7.33;;
10191;SDS011;17580;50.850;4.504;2024-02-26T07:02:46;6.70;;;6.20;;
10191;SDS011;17580;50.850;4.504;2024-02-26T07:05:14;8.03;;;7.43;;
10191;SDS011;17580;50.850;4.504;2024-02-26T07:07:41;8.60;;;7.80;;
10191;SDS011;17580;50.850;4.504;2024-02-26T07:10:09;8.87;;;8.00;;
10191;SDS011;17580;50.850;4.504;2024-02-26T07:12:37;8.00;;;7.40;;
10191;SDS011;17580;50.850;4.504;2024-02-26T07:15:06;8.43;;;7.37;;
10191;SDS011;17580;50.850;4.504;2024-02-26T07:17:34;7.73;;;7.13;;
10191;SDS011;17580;50.850;4.504;2024-02-26T07:20:01;7.40;;;6.80;;
10191;SDS011;17580;50.850;4.504;2024-02-26T07:22:29;7.93;;;7.03;;
10191;SDS011;17580;50.850;4.504;2024-02-26T07:24:56;7.83;;;7.13;;
10191;SDS011;17580;50.850;4.504;2024-02-26T07:27:24;7.57;;;6.97;;
10191;SDS011;17580;50.850;4.504;2024-02-26T07:29:51;7.80;;;7.10;;
10191;SDS011;17580;50.850;4.504;2024-02-26T07:32:20;7.57;;;6.97;;
10191;SDS011;17580;50.850;4.504;2024-02-26T07:34:47;8.23;;;7.60;;
10191;SDS011;17580;50.850;4.504;2024-02-26T07:37:15;6.77;;;6.13;;
10191;SDS011;17580;50.850;4.504;2024-02-26T07:39:42;7.13;;;6.63;;
10191;SDS011;17580;50.850;4.504;2024-02-26T07:42:09;8.60;;;7.80;;
10191;SDS011;17580;50.850;4.504;2024-02-26T07:44:36;8.00;;;7.40;;
10191;SDS011;17580;50.850;4.504;2024-02-26T07:47:05;7.10;;;6.50;;
10191;SDS011;17580;50.850;4.504;2024-02-26T07:49:34;6.80;;;6.30;;
10191;SDS011;17580;50.850;4.504;2024-02-26T07:52:01;6.77;;;6.27;;
10191;SDS011;17580;50.850;4.504;2024-02-26T07:54:28;6.90;;;6.40;;
10191;SDS011;17580;50.850;4.504;2024-02-26T07:56:55;6.80;;;6.17;;
10191;SDS011;17580;50.850;4.504;2024-02-26T07:59:23;6.77;;;5.97;;
10191;SDS011;17580;50.850;4.504;2024-02-26T08:01:50;6.60;;;6.10;;
10191;SDS011;17580;50.850;4.504;2024-02-26T08:04:18;6.80;;;6.30;;
10191;SDS011;17580;50.850;4.504;2024-02-26T08:06:46;6.43;;;5.83;;
10191;SDS011;17580;50.850;4.504;2024-02-26T08:09:13;6.10;;;5.70;;
10191;SDS011;17580;50.850;4.504;2024-02-26T08:11:40;7.10;;;6.60;;
10191;SDS011;17580;50.850;4.504;2024-02-26T08:14:08;6.33;;;5.93;;
10191;SDS011;17580;50.850;4.504;2024-02-26T08:16:35;5.70;;;5.20;;
10191;SDS011;17580;50.850;4.504;2024-02-26T08:19:02;6.73;;;6.23;;
10191;SDS011;17580;50.850;4.504;2024-02-26T08:21:29;5.97;;;5.50;;
10191;SDS011;17580;50.850;4.504;2024-02-26T08:23:58;5.77;;;5.37;;
10191;SDS011;17580;50.850;4.504;2024-02-26T08:26:28;5.87;;;5.47;;
10191;SDS011;17580;50.850;4.504;2024-02-26T08:28:56;5.97;;;5.57;;
10191;SDS011;17580;50.850;4.504;2024-02-26T08:31:23;5.73;;;5.33;;
10191;SDS011;17580;50.850;4.504;2024-02-26T08:33:50;6.07;;;5.57;;
10191;SDS011;17580;50.850;4.504;2024-02-26T08:36:18;6.33;;;5.83;;
10191;SDS011;17580;50.850;4.504;2024-02-26T08:38:45;6.33;;;5.93;;
10191;SDS011;17580;50.850;4.504;2024-02-26T08:41:13;6.40;;;6.00;;
10191;SDS011;17580;50.850;4.504;2024-02-26T08:43:41;5.60;;;5.30;;
10191;SDS011;17580;50.850;4.504;2024-02-26T08:46:08;6.20;;;5.70;;
10191;SDS011;17580;50.850;4.504;2024-02-26T08:48:36;6.97;;;6.47;;
10191;SDS011;17580;50.850;4.504;2024-02-26T08:51:04;6.63;;;6.13;;
10191;SDS011;17580;50.850;4.504;2024-02-26T08:53:32;5.77;;;5.37;;
10191;SDS011;17580;50.850;4.504;2024-02-26T08:55:59;6.37;;;5.97;;
10191;SDS011;17580;50.850;4.504;2024-02-26T08:58:28;6.10;;;5.60;;
10191;SDS011;17580;50.850;4.504;2024-02-26T09:00:55;6.07;;;5.67;;
10191;SDS011;17580;50.850;4.504;2024-02-26T09:03:22;6.40;;;5.90;;
10191;SDS011;17580;50.850;4.504;2024-02-26T09:05:51;5.60;;;5.30;;
10191;SDS011;17580;50.850;4.504;2024-02-26T09:08:18;5.50;;;5.10;;
10191;SDS011;17580;50.850;4.504;2024-02-26T09:10:47;5.87;;;5.47;;
10191;SDS011;17580;50.850;4.504;2024-02-26T09:13:14;6.37;;;5.77;;
10191;SDS011;17580;50.850;4.504;2024-02-26T09:15:43;6.20;;;5.60;;
10191;SDS011;17580;50.850;4.504;2024-02-26T09:18:10;6.30;;;5.90;;
10191;SDS011;17580;50.850;4.504;2024-02-26T09:20:39;6.10;;;5.70;;
10191;SDS011;17580;50.850;4.504;2024-02-26T09:23:07;6.67;;;6.23;;
10191;SDS011;17580;50.850;4.504;2024-02-26T09:25:34;6.27;;;5.87;;
10191;SDS011;17580;50.850;4.504;2024-02-26T09:28:02;5.80;;;5.40;;
10191;SDS011;17580;50.850;4.504;2024-02-26T09:30:29;6.60;;;6.10;;
10191;SDS011;17580;50.850;4.504;2024-02-26T09:32:58;6.30;;;5.90;;
10191;SDS011;17580;50.850;4.504;2024-02-26T09:35:25;6.33;;;5.93;;
10191;SDS011;17580;50.850;4.504;2024-02-26T09:37:52;6.73;;;6.23;;
10191;SDS011;17580;50.850;4.504;2024-02-26T09:40:19;6.23;;;5.83;;
10191;SDS011;17580;50.850;4.504;2024-02-26T09:42:48;6.13;;;5.73;;
10191;SDS011;17580;50.850;4.504;2024-02-26T09:45:21;7.33;;;6.83;;
10191;SDS011;17580;50.850;4.504;2024-02-26T09:47:48;6.00;;;5.60;;
10191;SDS011;17580;50.850;4.504;2024-02-26T09:50:17;6.90;;;6.43;;
10191;SDS011;17580;50.850;4.504;2024-02-26T09:52:47;6.67;;;6.13;;
10191;SDS011;17580;50.850;4.504;2024-02-26T09:55:15;6.10;;;5.70;;
10191;SDS011;17580;50.850;4.504;2024-02-26T09:57:45;6.20;;;5.80;;
10191;SDS011;17580;50.850;4.504;2024-02-26T10:00:14;6.40;;;5.80;;
10191;SDS011;17580;50.850;4.504;2024-02-26T10:02:43;6.13;;;5.70;;
10191;SDS011;17580;50.850;4.504;2024-02-26T10:05:12;6.50;;;6.00;;
10191;SDS011;17580;50.850;4.504;2024-02-26T10:07:42;5.60;;;5.30;;
10191;SDS011;17580;50.850;4.504;2024-02-26T10:10:11;5.50;;;5.17;;
10191;SDS011;17580;50.850;4.504;2024-02-26T10:12:38;5.07;;;4.60;;
10191;SDS011;17580;50.850;4.504;2024-02-26T10:15:05;5.57;;;5.23;;
10191;SDS011;17580;50.850;4.504;2024-02-26T10:17:33;5.60;;;5.30;;
10191;SDS011;17580;50.850;4.504;2024-02-26T10:20:13;5.63;;;5.20;;
10191;SDS011;17580;50.850;4.504;2024-02-26T10:22:42;5.80;;;5.40;;
10191;SDS011;17580;50.850;4.504;2024-02-26T10:25:09;4.80;;;4.50;;
10191;SDS011;17580;50.850;4.504;2024-02-26T10:27:37;6.23;;;5.70;;
10191;SDS011;17580;50.850;4.504;2024-02-26T10:30:04;5.20;;;4.77;;
10191;SDS011;17580;50.850;4.504;2024-02-26T10:32:40;5.87;;;5.47;;
10191;SDS011;17580;50.850;4.504;2024-02-26T10:35:08;4.93;;;4.60;;
10191;SDS011;17580;50.850;4.504;2024-02-26T10:37:35;5.33;;;4.97;;
10191;SDS011;17580;50.850;4.504;2024-02-26T10:40:04;5.77;;;5.27;;
10191;SDS011;17580;50.850;4.504;2024-02-26T10:42:31;5.17;;;4.73;;
10191;SDS011;17580;50.850;4.504;2024-02-26T10:44:59;4.77;;;4.47;;
10191;SDS011;17580;50.850;4.504;2024-02-26T10:47:27;5.03;;;4.73;;
10191;SDS011;17580;50.850;4.504;2024-02-26T10:49:55;5.17;;;4.80;;
10191;SDS011;17580;50.850;4.504;2024-02-26T10:52:23;4.73;;;4.43;;
10191;SDS011;17580;50.850;4.504;2024-02-26T10:54:50;5.33;;;4.93;;
10191;SDS011;17580;50.850;4.504;2024-02-26T10:57:21;4.67;;;4.40;;
10191;SDS011;17580;50.850;4.504;2024-02-26T10:59:49;4.67;;;4.33;;
10191;SDS011;17580;50.850;4.504;2024-02-26T11:02:18;4.80;;;4.50;;
10191;SDS011;17580;50.850;4.504;2024-02-26T11:04:45;4.53;;;4.23;;
10191;SDS011;17580;50.850;4.504;2024-02-26T11:07:15;4.47;;;4.17;;
10191;SDS011;17580;50.850;4.504;2024-02-26T11:09:43;4.57;;;4.37;;
10191;SDS011;17580;50.850;4.504;2024-02-26T11:12:17;3.73;;;3.53;;
10191;SDS011;17580;50.850;4.504;2024-02-26T11:14:46;3.97;;;3.77;;
10191;SDS011;17580;50.850;4.504;2024-02-26T11:17:14;4.03;;;3.80;;
10191;SDS011;17580;50.850;4.504;2024-02-26T11:19:42;3.93;;;3.60;;
10191;SDS011;17580;50.850;4.504;2024-02-26T11:22:10;3.97;;;3.70;;
10191;SDS011;17580;50.850;4.504;2024-02-26T11:24:37;4.17;;;3.97;;
10191;SDS011;17580;50.850;4.504;2024-02-26T11:27:06;4.20;;;3.80;;
10191;SDS011;17580;50.850;4.504;2024-02-26T11:29:37;3.77;;;3.57;;
10191;SDS011;17580;50.850;4.504;2024-02-26T11:32:07;3.53;;;3.40;;
10191;SDS011;17580;50.850;4.504;2024-02-26T11:34:34;3.87;;;3.60;;
10191;SDS011;17580;50.850;4.504;2024-02-26T11:37:08;3.40;;;3.20;;
10191;SDS011;17580;50.850;4.504;2024-02-26T11:39:35;3.80;;;3.60;;
10191;SDS011;17580;50.850;4.504;2024-02-26T11:42:04;2.73;;;2.63;;
10191;SDS011;17580;50.850;4.504;2024-02-26T11:44:33;3.43;;;3.13;;
10191;SDS011;17580;50.850;4.504;2024-02-26T11:47:10;3.47;;;3.17;;
10191;SDS011;17580;50.850;4.504;2024-02-26T11:49:38;3.70;;;3.50;;
10191;SDS011;17580;50.850;4.504;2024-02-26T11:52:06;3.40;;;3.20;;
10191;SDS011;17580;50.850;4.504;2024-02-26T11:54:38;3.77;;;3.57;;
10191;SDS011;17580;50.850;4.504;2024-02-26T11:57:04;3.73;;;3.53;;
10191;SDS011;17580;50.850;4.504;2024-02-26T11:59:37;3.60;;;3.50;;
10191;SDS011;17580;50.850;4.504;2024-02-26T12:02:05;3.83;;;3.63;;
10191;SDS011;17580;50.850;4.504;2024-02-26T12:04:35;3.70;;;3.50;;
10191;SDS011;17580;50.850;4.504;2024-02-26T12:07:03;3.77;;;3.43;;
10191;SDS011;17580;50.850;4.504;2024-02-26T12:09:31;3.10;;;3.00;;
10191;SDS011;17580;50.850;4.504;2024-02-26T12:11:58;3.70;;;3.50;;
10191;SDS011;17580;50.850;4.504;2024-02-26T12:14:26;3.50;;;3.20;;
10191;SDS011;17580;50.850;4.504;2024-02-26T12:16:54;3.27;;;3.17;;
10191;SDS011;17580;50.850;4.504;2024-02-26T12:19:23;3.67;;;3.47;;
10191;SDS011;17580;50.850;4.504;2024-02-26T12:21:52;3.70;;;3.50;;
10191;SDS011;17580;50.850;4.504;2024-02-26T12:24:20;3.83;;;3.63;;
10191;SDS011;17580;50.850;4.504;2024-02-26T12:26:47;3.00;;;2.90;;
10191;SDS011;17580;50.850;4.504;2024-02-26T12:29:15;3.30;;;3.20;;
10191;SDS011;17580;50.850;4.504;2024-02-26T12:31:42;3.37;;;3.17;;
10191;SDS011;17580;50.850;4.504;2024-02-26T12:34:09;3.40;;;3.20;;
10191;SDS011;17580;50.850;4.504;2024-02-26T12:36:37;3.17;;;2.97;;
10191;SDS011;17580;50.850;4.504;2024-02-26T12:39:05;3.60;;;3.40;;
10191;SDS011;17580;50.850;4.504;2024-02-26T12:41:32;3.27;;;3.07;;
10191;SDS011;17580;50.850;4.504;2024-02-26T12:44:00;2.90;;;2.80;;
10191;SDS011;17580;50.850;4.504;2024-02-26T12:46:27;3.27;;;3.10;;
10191;SDS011;17580;50.850;4.504;2024-02-26T12:48:55;2.80;;;2.70;;
10191;SDS011;17580;50.850;4.504;2024-02-26T12:51:24;2.77;;;2.67;;
10191;SDS011;17580;50.850;4.504;2024-02-26T12:53:52;2.73;;;2.63;;
10191;SDS011;17580;50.850;4.504;2024-02-26T12:56:21;3.23;;;3.10;;
10191;SDS011;17580;50.850;4.504;2024-02-26T12:58:48;2.90;;;2.80;;
10191;SDS011;17580;50.850;4.504;2024-02-26T13:01:17;3.30;;;3.20;;
10191;SDS011;17580;50.850;4.504;2024-02-26T13:03:45;2.60;;;2.50;;
10191;SDS011;17580;50.850;4.504;2024-02-26T13:06:12;2.70;;;2.60;;
10191;SDS011;17580;50.850;4.504;2024-02-26T13:08:40;3.00;;;2.80;;
10191;SDS011;17580;50.850;4.504;2024-02-26T13:11:08;2.90;;;2.70;;
10191;SDS011;17580;50.850;4.504;2024-02-26T13:13:36;3.17;;;3.07;;
10191;SDS011;17580;50.850;4.504;2024-02-26T13:16:04;3.40;;;3.10;;
10191;SDS011;17580;50.850;4.504;2024-02-26T13:18:33;3.77;;;3.57;;
10191;SDS011;17580;50.850;4.504;2024-02-26T13:21:08;3.50;;;3.30;;
10191;SDS011;17580;50.850;4.504;2024-02-26T13:23:35;3.87;;;3.63;;
10191;SDS011;17580;50.850;4.504;2024-02-26T13:26:02;3.87;;;3.67;;
10191;SDS011;17580;50.850;4.504;2024-02-26T13:28:30;3.60;;;3.40;;
10191;SDS011;17580;50.850;4.504;2024-02-26T13:30:59;4.10;;;3.80;;
10191;SDS011;17580;50.850;4.504;2024-02-26T13:33:28;4.47;;;4.10;;
10191;SDS011;17580;50.850;4.504;2024-02-26T13:35:56;4.20;;;4.00;;
10191;SDS011;17580;50.850;4.504;2024-02-26T13:38:23;4.40;;;4.10;;
10191;SDS011;17580;50.850;4.504;2024-02-26T13:40:51;4.43;;;4.13;;
10191;SDS011;17580;50.850;4.504;2024-02-26T13:43:18;4.40;;;4.20;;
10191;SDS011;17580;50.850;4.504;2024-02-26T13:45:46;4.63;;;4.30;;
10191;SDS011;17580;50.850;4.504;2024-02-26T13:48:15;5.30;;;4.90;;
10191;SDS011;17580;50.850;4.504;2024-02-26T13:50:42;4.93;;;4.53;;
10191;SDS011;17580;50.850;4.504;2024-02-26T13:53:10;5.13;;;4.77;;
10191;SDS011;17580;50.850;4.504;2024-02-26T13:55:39;5.33;;;4.93;;
10191;SDS011;17580;50.850;4.504;2024-02-26T13:58:07;5.43;;;5.13;;
10191;SDS011;17580;50.850;4.504;2024-02-26T14:00:35;6.83;;;6.33;;
10191;SDS011;17580;50.850;4.504;2024-02-26T14:03:02;6.50;;;6.00;;
10191;SDS011;17580;50.850;4.504;2024-02-26T14:05:31;6.70;;;5.90;;
10191;SDS011;17580;50.850;4.504;2024-02-26T14:07:58;6.60;;;6.10;;
10191;SDS011;17580;50.850;4.504;2024-02-26T14:10:25;6.43;;;5.93;;
10191;SDS011;17580;50.850;4.504;2024-02-26T14:12:53;6.27;;;5.77;;
10191;SDS011;17580;50.850;4.504;2024-02-26T14:15:20;7.20;;;6.60;;
10191;SDS011;17580;50.850;4.504;2024-02-26T14:17:49;6.20;;;5.67;;
10191;SDS011;17580;50.850;4.504;2024-02-26T14:20:19;5.70;;;5.30;;
10191;SDS011;17580;50.850;4.504;2024-02-26T14:22:48;6.17;;;5.67;;
10191;SDS011;17580;50.850;4.504;2024-02-26T14:25:16;6.60;;;6.07;;
10191;SDS011;17580;50.850;4.504;2024-02-26T14:27:44;6.77;;;6.20;;
10191;SDS011;17580;50.850;4.504;2024-02-26T14:30:12;6.53;;;6.03;;
10191;SDS011;17580;50.850;4.504;2024-02-26T14:32:40;6.77;;;6.17;;
10191;SDS011;17580;50.850;4.504;2024-02-26T14:35:07;6.27;;;5.70;;
10191;SDS011;17580;50.850;4.504;2024-02-26T14:37:35;6.70;;;6.20;;
10191;SDS011;17580;50.850;4.504;2024-02-26T14:40:04;6.90;;;6.40;;
10191;SDS011;17580;50.850;4.504;2024-02-26T14:42:32;7.53;;;6.47;;
10191;SDS011;17580;50.850;4.504;2024-02-26T14:45:00;6.07;;;5.67;;
10191;SDS011;17580;50.850;4.504;2024-02-26T14:47:27;6.93;;;6.37;;
10191;SDS011;17580;50.850;4.504;2024-02-26T14:49:54;5.77;;;5.37;;
10191;SDS011;17580;50.850;4.504;2024-02-26T14:52:21;6.67;;;5.87;;